createdAt,value
2018-07-07T00:03:28.292Z,1.10
2018-07-07T00:08:31.393Z,1.20
2018-07-07T00:13:34.410Z,1.20
2018-07-07T00:18:37.490Z,1.20
2018-07-07T00:23:40.477Z,1.00
2018-07-07T00:28:43.509Z,1.40
2018-07-07T00:33:46.594Z,1.10
2018-07-07T00:38:49.708Z,1.00
2018-07-07T00:43:52.736Z,1.20
2018-07-07T00:48:55.729Z,1.00
2018-07-07T00:53:58.729Z,0.87
2018-07-07T00:59:01.793Z,0.80
2018-07-07T01:04:05.132Z,0.90
2018-07-07T01:09:08.586Z,1.13
2018-07-07T01:14:12.149Z,1.13
2018-07-07T01:19:15.731Z,1.30
2018-07-07T01:24:19.269Z,1.00
2018-07-07T01:29:22.332Z,1.40
2018-07-07T01:34:25.308Z,1.00
2018-07-07T01:39:28.538Z,1.00
2018-07-07T01:44:31.616Z,1.37
2018-07-07T01:49:35.518Z,1.30
2018-07-07T01:54:38.509Z,1.10
2018-07-07T01:59:41.618Z,1.40
2018-07-07T02:04:44.661Z,1.17
2018-07-07T02:09:47.608Z,1.10
2018-07-07T02:14:50.632Z,1.03
2018-07-07T02:19:53.601Z,2.00
2018-07-07T02:24:56.621Z,1.30
2018-07-07T02:29:59.686Z,1.60
2018-07-07T02:35:02.731Z,1.40
2018-07-07T02:40:05.777Z,1.30
2018-07-07T02:45:08.893Z,1.80
2018-07-07T02:50:12.062Z,1.50
2018-07-07T02:55:15.141Z,1.93
2018-07-07T03:00:18.246Z,1.50
2018-07-07T03:05:21.644Z,1.30
2018-07-07T03:10:25.019Z,1.73
2018-07-07T03:15:28.474Z,1.67
2018-07-07T03:20:31.853Z,1.53
2018-07-07T03:25:35.089Z,2.03
2018-07-07T03:30:38.468Z,1.90
2018-07-07T03:35:41.857Z,1.80
2018-07-07T03:40:45.107Z,2.10
2018-07-07T03:45:48.448Z,1.90
2018-07-07T03:50:51.828Z,2.50
2018-07-07T03:55:55.190Z,2.60
2018-07-07T04:00:58.616Z,1.67
2018-07-07T04:06:02.091Z,2.53
2018-07-07T04:11:05.710Z,2.90
2018-07-07T04:16:09.206Z,3.20
2018-07-07T04:21:12.623Z,2.93
2018-07-07T04:26:15.980Z,3.17
2018-07-07T04:31:19.342Z,2.40
2018-07-07T04:36:22.696Z,3.33
2018-07-07T04:41:25.994Z,2.80
2018-07-07T04:46:30.801Z,2.77
2018-07-07T04:51:34.157Z,3.03
2018-07-07T04:56:37.539Z,2.73
2018-07-07T05:01:40.949Z,2.93
2018-07-07T05:06:44.341Z,2.80
2018-07-07T05:11:47.688Z,2.90
2018-07-07T05:16:51.068Z,2.97
2018-07-07T05:21:54.449Z,3.13
2018-07-07T05:26:57.815Z,4.30
2018-07-07T05:32:01.102Z,2.90
2018-07-07T05:37:04.884Z,2.90
2018-07-07T05:42:08.439Z,4.00
2018-07-07T05:47:11.885Z,4.07
2018-07-07T05:52:15.261Z,3.17
2018-07-07T05:57:18.638Z,2.77
2018-07-07T06:02:21.981Z,2.87
2018-07-07T06:07:25.314Z,3.30
2018-07-07T06:12:28.640Z,4.30
2018-07-07T06:17:32.028Z,2.77
2018-07-07T06:22:35.403Z,3.53
2018-07-07T06:27:38.840Z,2.70
2018-07-07T06:32:42.214Z,2.60
2018-07-07T06:37:45.541Z,2.30
2018-07-07T06:42:48.864Z,2.63
2018-07-07T06:47:52.207Z,3.10
2018-07-07T06:52:55.531Z,3.00
2018-07-07T06:57:58.884Z,2.33
2018-07-07T07:03:02.216Z,2.60
2018-07-07T07:08:05.613Z,3.00
2018-07-07T07:13:09.345Z,2.50
2018-07-07T07:18:12.828Z,2.30
2018-07-07T07:23:16.260Z,2.33
2018-07-07T07:28:19.740Z,3.20
2018-07-07T07:33:23.135Z,2.57
2018-07-07T07:38:26.481Z,2.60
2018-07-07T07:43:29.843Z,2.10
2018-07-07T07:48:33.257Z,2.10
2018-07-07T07:53:36.700Z,2.63
2018-07-07T07:58:40.089Z,1.97
2018-07-07T08:03:43.465Z,2.20
2018-07-07T08:08:46.843Z,2.70
2018-07-07T08:13:50.188Z,3.10
2018-07-07T08:18:53.532Z,2.10
2018-07-07T08:23:56.856Z,2.57
2018-07-07T08:29:00.165Z,2.80
2018-07-07T08:34:03.551Z,2.53
2018-07-07T08:39:06.990Z,2.80
2018-07-07T08:44:10.892Z,2.60
2018-07-07T08:49:14.369Z,2.23
2018-07-07T08:54:17.725Z,3.00
2018-07-07T08:59:21.107Z,2.70
2018-07-07T09:04:24.445Z,2.87
2018-07-07T09:09:27.828Z,2.30
2018-07-07T09:14:31.175Z,3.80
2018-07-07T09:19:34.486Z,2.63
2018-07-07T09:24:37.890Z,2.40
2018-07-07T09:29:41.204Z,2.40
2018-07-07T09:34:44.581Z,3.07
2018-07-07T09:39:47.957Z,2.90
2018-07-07T09:44:51.561Z,2.20
2018-07-07T09:49:54.998Z,2.47
2018-07-07T09:54:58.304Z,3.03
2018-07-07T10:00:01.656Z,2.57
2018-07-07T10:05:04.961Z,2.70
2018-07-07T10:10:08.440Z,2.23
2018-07-07T10:15:11.854Z,3.10
2018-07-07T10:20:15.216Z,2.50
2018-07-07T10:25:18.593Z,2.37
2018-07-07T10:30:21.916Z,2.43
2018-07-07T10:35:25.264Z,2.10
2018-07-07T10:40:28.630Z,2.30
2018-07-07T10:45:32.035Z,2.50
2018-07-07T10:50:35.298Z,2.83
2018-07-07T10:55:38.725Z,2.20
2018-07-07T11:00:42.062Z,2.23
2018-07-07T11:05:45.365Z,2.60
2018-07-07T11:10:48.745Z,2.10
2018-07-07T11:15:52.082Z,1.90
2018-07-07T11:20:55.481Z,1.80
2018-07-07T11:25:58.852Z,1.87
2018-07-07T11:31:02.194Z,1.80
2018-07-07T11:36:05.665Z,1.83
2018-07-07T11:41:10.000Z,1.70
2018-07-07T11:46:13.596Z,1.77
2018-07-07T11:51:16.944Z,2.13
2018-07-07T11:56:20.300Z,1.70
2018-07-07T12:01:23.664Z,2.50
2018-07-07T12:06:27.006Z,1.90
2018-07-07T12:11:30.474Z,2.43
2018-07-07T12:16:33.784Z,2.13
2018-07-07T12:21:37.168Z,2.07
2018-07-07T12:26:40.532Z,1.93
2018-07-07T12:31:43.923Z,1.87
2018-07-07T12:36:47.341Z,1.90
2018-07-07T12:41:50.663Z,2.13
2018-07-07T12:46:54.027Z,1.97
2018-07-07T12:51:57.394Z,2.13
2018-07-07T12:57:00.711Z,1.70
2018-07-07T13:02:04.224Z,2.13
2018-07-07T13:07:07.613Z,1.50
2018-07-07T13:12:11.041Z,1.97
2018-07-07T13:17:14.414Z,1.77
2018-07-07T13:22:17.907Z,1.40
2018-07-07T13:27:21.252Z,2.00
2018-07-07T13:32:24.603Z,1.80
2018-07-07T13:37:28.005Z,1.20
2018-07-07T13:42:31.364Z,1.40
2018-07-07T13:47:34.705Z,1.80
2018-07-07T13:52:38.062Z,1.50
2018-07-07T13:57:41.450Z,1.37
2018-07-07T14:02:45.009Z,1.50
2018-07-07T14:07:48.469Z,1.50
2018-07-07T14:12:51.918Z,1.87
2018-07-07T14:17:55.277Z,1.73
2018-07-07T14:22:58.605Z,1.43
2018-07-07T14:28:01.975Z,1.30
2018-07-07T14:33:05.580Z,1.20
2018-07-07T14:38:08.973Z,1.60
2018-07-07T14:43:12.312Z,1.90
2018-07-07T14:48:15.731Z,1.77
2018-07-07T14:53:19.109Z,2.07
2018-07-07T14:58:22.528Z,1.90
2018-07-07T15:03:25.883Z,1.77
2018-07-07T15:08:29.233Z,1.93
2018-07-07T15:13:32.880Z,2.40
2018-07-07T15:18:36.793Z,1.83
2018-07-07T15:23:40.153Z,1.30
2018-07-07T15:28:43.490Z,1.63
2018-07-07T15:33:47.077Z,1.83
2018-07-07T15:38:50.509Z,1.57
2018-07-07T15:43:53.900Z,1.97
2018-07-07T15:48:57.281Z,2.13
2018-07-07T15:54:00.668Z,1.67
2018-07-07T15:59:04.064Z,1.60
2018-07-07T16:04:07.486Z,1.63
2018-07-07T16:09:10.802Z,1.43
2018-07-07T16:14:14.767Z,1.50
2018-07-07T16:19:19.352Z,1.43
2018-07-07T16:24:22.841Z,1.73
2018-07-07T16:29:26.262Z,1.47
2018-07-07T16:34:29.652Z,1.50
2018-07-07T16:39:33.591Z,1.50
2018-07-07T16:44:37.438Z,1.83
2018-07-07T16:49:40.931Z,2.40
2018-07-07T16:54:44.414Z,1.60
2018-07-07T16:59:47.944Z,1.80
2018-07-07T17:04:51.418Z,1.60
2018-07-07T17:09:54.938Z,1.90
2018-07-07T17:14:59.143Z,2.00
2018-07-07T17:20:02.553Z,1.83
2018-07-07T17:25:06.452Z,2.10
2018-07-07T17:30:11.515Z,2.00
2018-07-07T17:35:15.142Z,2.47
2018-07-07T17:40:18.663Z,2.40
2018-07-07T17:45:22.602Z,2.00
2018-07-07T17:50:33.375Z,2.03
2018-07-07T17:55:36.988Z,2.00
2018-07-07T18:00:43.092Z,2.00
2018-07-07T18:05:46.477Z,2.73
2018-07-07T18:10:49.861Z,2.03
2018-07-07T18:15:54.339Z,2.07
2018-07-07T18:20:57.771Z,2.10
2018-07-07T18:26:01.456Z,1.83
2018-07-07T18:31:05.367Z,2.10
2018-07-07T18:36:08.816Z,2.87
2018-07-07T18:41:12.641Z,2.23
2018-07-07T18:46:16.202Z,1.50
2018-07-07T18:51:19.600Z,1.60
2018-07-07T18:56:22.925Z,1.77
2018-07-07T19:01:26.449Z,1.63
2018-07-07T19:06:29.785Z,1.50
2018-07-07T19:11:33.192Z,1.77
2018-07-07T19:16:36.682Z,1.57
2018-07-07T19:21:46.798Z,1.50
2018-07-07T19:26:51.700Z,1.60
2018-07-07T19:32:00.504Z,2.17
2018-07-07T19:37:09.396Z,1.40
2018-07-07T19:42:13.084Z,1.87
2018-07-07T19:47:16.489Z,1.60
2018-07-07T19:52:19.899Z,1.60
2018-07-07T19:57:23.420Z,1.50
2018-07-07T20:02:26.813Z,1.70
2018-07-07T20:07:30.224Z,2.00
2018-07-07T20:12:33.701Z,1.20
2018-07-07T20:17:54.264Z,1.70
2018-07-07T20:22:57.837Z,1.90
2018-07-07T20:28:06.714Z,2.13
2018-07-07T20:33:10.247Z,1.73
2018-07-07T20:38:13.597Z,1.60
2018-07-07T20:43:16.938Z,2.10
2018-07-07T20:48:20.265Z,1.70
2018-07-07T20:53:23.656Z,1.50
2018-07-07T20:58:27.056Z,1.47
2018-07-07T21:03:30.439Z,1.73
2018-07-07T21:08:33.788Z,1.83
2018-07-07T21:13:37.334Z,1.60
2018-07-07T21:18:40.778Z,1.93
2018-07-07T21:23:44.185Z,1.80
2018-07-07T21:28:47.638Z,1.73
2018-07-07T21:33:51.002Z,2.30
2018-07-07T21:38:54.359Z,2.23
2018-07-07T21:43:57.770Z,2.10
2018-07-07T21:49:01.138Z,1.93
2018-07-07T21:54:04.562Z,1.77
2018-07-07T21:59:13.621Z,2.00
2018-07-07T22:04:22.345Z,3.77
2018-07-07T22:09:25.698Z,2.23
2018-07-07T22:14:29.421Z,2.40
2018-07-07T22:19:32.776Z,2.00
2018-07-07T22:24:36.484Z,2.20
2018-07-07T22:29:39.973Z,1.97
2018-07-07T22:34:43.376Z,2.43
2018-07-07T22:39:47.021Z,2.37
2018-07-07T22:44:50.367Z,2.13
2018-07-07T22:49:53.731Z,2.00
2018-07-07T22:54:57.072Z,2.00
2018-07-07T23:00:00.424Z,2.30
2018-07-07T23:05:03.830Z,2.03
2018-07-07T23:10:07.289Z,2.10
2018-07-07T23:15:10.656Z,1.97
2018-07-07T23:20:14.020Z,2.83
2018-07-07T23:25:17.401Z,2.30
2018-07-07T23:30:21.160Z,2.70
2018-07-07T23:35:24.584Z,2.70
2018-07-07T23:40:27.912Z,2.73
2018-07-07T23:45:31.357Z,2.47
2018-07-07T23:50:34.672Z,3.20
2018-07-07T23:55:38.124Z,2.70
